Time;durP1;ratioP1;P1;durP2;ratioP2;P2;SDS_P1;SDS_P2;PMS_P1;PMS_P2;Temp;Humidity;BMP_temperature;BMP_pressure;BME280_temperature;BME280_humidity;BME280_pressure;Samples;Min_cycle;Max_cycle;Signal;HPM_P1;HPM_P2
2023/11/12 00:02:13;;;;;;;1.98;1.45;;;3.20;1.00;;;;;;6237109;23;20020;-74
2023/11/12 00:04:41;;;;;;;2.45;1.40;;;3.20;1.00;;;;;;6209926;23;20130;-75
2023/11/12 00:07:09;;;;;;;1.90;1.30;;;3.20;1.00;;;;;;6212050;23;20096;-74
2023/11/12 00:09:36;;;;;;;2.00;1.20;;;3.20;99.90;;;;;;6236128;23;20118;-75
2023/11/12 00:12:03;;;;;;;2.20;1.45;;;3.10;99.90;;;;;;6211653;23;20074;-75
2023/11/12 00:14:30;;;;;;;2.42;1.38;;;3.10;99.90;;;;;;6238021;23;20095;-74
2023/11/12 00:16:57;;;;;;;2.15;1.52;;;3.10;1.00;;;;;;6238473;23;20023;-74
2023/11/12 00:19:24;;;;;;;1.52;1.10;;;3.10;1.00;;;;;;6238285;23;20028;-75
2023/11/12 00:21:50;;;;;;;1.60;0.80;;;3.10;1.00;;;;;;6210706;23;20066;-75
2023/11/12 00:24:17;;;;;;;1.75;1.17;;;3.20;92.30;;;;;;6232306;23;20099;-75
2023/11/12 00:26:44;;;;;;;1.67;1.00;;;3.20;99.90;;;;;;6233716;23;20087;-75
2023/11/12 00:29:11;;;;;;;1.58;0.98;;;3.20;99.90;;;;;;6233730;23;20078;-75
2023/11/12 00:31:38;;;;;;;1.73;1.10;;;3.20;99.90;;;;;;6236084;23;20027;-75
2023/11/12 00:34:05;;;;;;;1.40;0.80;;;3.20;99.90;;;;;;6235768;23;20051;-74
2023/11/12 00:36:32;;;;;;;1.40;0.90;;;3.20;99.90;;;;;;6209885;23;20024;-75
2023/11/12 00:38:59;;;;;;;1.42;0.90;;;3.20;99.90;;;;;;6210930;23;20100;-75
2023/11/12 00:41:25;;;;;;;1.42;0.90;;;3.30;99.90;;;;;;6236200;23;20038;-75
2023/11/12 00:43:56;;;;;;;1.23;0.90;;;3.30;99.90;;;;;;6237997;23;20028;-75
2023/11/12 00:46:24;;;;;;;1.35;0.90;;;3.30;1.00;;;;;;6238118;23;20028;-75
2023/11/12 00:48:50;;;;;;;1.40;0.82;;;3.30;1.00;;;;;;6237036;23;20024;-75
2023/11/12 00:51:17;;;;;;;1.00;0.68;;;3.30;1.00;;;;;;6235058;23;20082;-75
2023/11/12 00:53:45;;;;;;;1.13;0.80;;;3.40;27.10;;;;;;6210790;23;20529;-75
2023/11/12 00:56:13;;;;;;;1.05;0.68;;;3.40;99.90;;;;;;6236010;23;20044;-74
2023/11/12 00:58:40;;;;;;;1.42;1.00;;;3.50;99.90;;;;;;6186675;23;20358;-75
2023/11/12 01:01:07;;;;;;;2.47;1.15;;;3.50;99.90;;;;;;6238062;23;20024;-75
2023/11/12 01:03:34;;;;;;;1.60;0.85;;;3.50;99.90;;;;;;6207852;23;20402;-75
2023/11/12 01:06:02;;;;;;;1.27;0.80;;;3.50;99.90;;;;;;6230260;23;20100;-75
2023/11/12 01:08:30;;;;;;;1.70;1.00;;;3.60;99.90;;;;;;6210257;23;20028;-75
2023/11/12 01:10:57;;;;;;;1.15;0.80;;;3.60;99.90;;;;;;6236413;23;20506;-75
2023/11/12 01:13:24;;;;;;;2.05;0.82;;;3.60;99.90;;;;;;6185958;23;20078;-75
2023/11/12 01:15:52;;;;;;;1.50;0.95;;;3.60;99.90;;;;;;6210449;23;20561;-75
2023/11/12 01:18:20;;;;;;;1.15;0.80;;;3.70;99.90;;;;;;6210523;23;20046;-75
2023/11/12 01:20:47;;;;;;;2.33;1.08;;;3.70;99.90;;;;;;6209353;23;20069;-74
2023/11/12 01:23:14;;;;;;;1.25;0.82;;;3.70;99.90;;;;;;6210259;23;20032;-74
2023/11/12 01:25:41;;;;;;;1.77;1.05;;;3.80;99.90;;;;;;6185739;23;20431;-75
2023/11/12 01:28:10;;;;;;;1.17;0.73;;;3.80;99.90;;;;;;6237438;23;20024;-75
2023/11/12 01:30:37;;;;;;;0.82;0.60;;;3.80;99.90;;;;;;6235318;23;20062;-74
2023/11/12 01:33:04;;;;;;;1.83;1.00;;;3.80;99.90;;;;;;6235202;23;20055;-74
2023/11/12 01:35:32;;;;;;;1.90;1.20;;;3.90;1.00;;;;;;6234281;23;20131;-75
2023/11/12 01:37:59;;;;;;;1.15;0.88;;;3.90;1.00;;;;;;6237545;23;20027;-75
2023/11/12 01:40:28;;;;;;;1.08;0.90;;;4.00;1.00;;;;;;6236740;23;20032;-75
2023/11/12 01:42:54;;;;;;;1.95;0.90;;;4.00;1.00;;;;;;6237267;23;20119;-75
2023/11/12 01:45:21;;;;;;;1.65;1.00;;;4.10;1.00;;;;;;6235144;23;20183;-74
2023/11/12 01:47:48;;;;;;;1.13;0.95;;;4.10;1.00;;;;;;6234132;23;20545;-75
2023/11/12 01:50:15;;;;;;;2.00;1.00;;;4.20;1.00;;;;;;6183338;23;20028;-74
2023/11/12 01:52:42;;;;;;;2.15;1.20;;;4.20;1.00;;;;;;6185758;23;20055;-75
2023/11/12 01:55:09;;;;;;;1.80;1.00;;;4.30;1.00;;;;;;6209745;23;20239;-75
2023/11/12 01:57:39;;;;;;;1.48;0.70;;;4.30;1.00;;;;;;6185959;23;20024;-75
2023/11/12 02:00:10;;;;;;;1.20;0.73;;;4.40;1.00;;;;;;6209690;23;20050;-75
2023/11/12 02:02:38;;;;;;;1.15;0.70;;;4.40;1.00;;;;;;6211375;23;20557;-75
2023/11/12 02:05:06;;;;;;;1.42;0.90;;;4.50;1.00;;;;;;6233744;23;20031;-75
2023/11/12 02:07:33;;;;;;;0.50;0.50;;;4.60;1.00;;;;;;6236053;23;20096;-75
2023/11/12 02:10:09;;;;;;;0.80;0.60;;;4.60;1.00;;;;;;6209875;23;20397;-75
2023/11/12 02:12:39;;;;;;;0.95;0.63;;;4.60;1.00;;;;;;6212770;23;20020;-75
2023/11/12 02:15:06;;;;;;;0.52;0.50;;;4.70;1.00;;;;;;6186178;23;20059;-75
2023/11/12 02:17:33;;;;;;;1.00;0.60;;;4.70;1.00;;;;;;6210541;23;20391;-75
2023/11/12 02:20:10;;;;;;;1.55;0.50;;;4.70;1.00;;;;;;6208198;23;20020;-75
2023/11/12 02:22:37;;;;;;;1.00;0.63;;;4.80;1.00;;;;;;6185397;23;20470;-75
2023/11/12 02:25:04;;;;;;;0.90;0.60;;;4.80;1.00;;;;;;6233980;23;20024;-75
2023/11/12 02:27:31;;;;;;;1.30;0.82;;;4.80;1.00;;;;;;6236943;23;20062;-75
2023/11/12 02:29:58;;;;;;;0.70;0.65;;;4.80;1.00;;;;;;6230559;23;20016;-75
2023/11/12 02:32:32;;;;;;;0.75;0.50;;;4.80;99.90;;;;;;6231600;23;20074;-75
2023/11/12 02:35:00;;;;;;;0.43;0.40;;;4.90;99.90;;;;;;6232981;23;20111;-76
2023/11/12 02:37:27;;;;;;;0.80;0.70;;;4.90;99.90;;;;;;6233514;23;20631;-75
2023/11/12 02:39:54;;;;;;;1.00;0.70;;;4.90;99.90;;;;;;6210995;23;20052;-75
2023/11/12 02:42:21;;;;;;;0.63;0.47;;;4.90;1.00;;;;;;6212615;23;20024;-75
2023/11/12 02:44:49;;;;;;;1.63;0.68;;;5.00;1.00;;;;;;6212057;23;20103;-75
2023/11/12 02:47:16;;;;;;;2.17;1.23;;;5.00;1.00;;;;;;6210319;23;20354;-75
2023/11/12 02:50:00;;;;;;;0.85;0.80;;;5.00;1.00;;;;;;6208594;23;20390;-75
2023/11/12 02:52:26;;;;;;;;;;;5.00;1.00;;;;;;6186794;23;20024;-75
2023/11/12 02:54:54;;;;;;;1.45;0.82;;;5.00;1.00;;;;;;6235479;23;19946;-76
2023/11/12 02:57:22;;;;;;;1.33;0.90;;;5.00;1.00;;;;;;6210837;23;20091;-75
2023/11/12 02:59:49;;;;;;;0.73;0.55;;;5.10;1.00;;;;;;6209800;23;20012;-75
2023/11/12 03:02:16;;;;;;;1.20;0.70;;;5.10;1.00;;;;;;6210573;23;20426;-75
2023/11/12 03:04:42;;;;;;;1.13;0.77;;;5.10;1.00;;;;;;6184058;23;20020;-75
2023/11/12 03:07:09;;;;;;;0.90;0.60;;;5.10;1.00;;;;;;6210802;23;20024;-74
2023/11/12 03:09:36;;;;;;;0.95;0.65;;;5.10;1.00;;;;;;6185442;23;20042;-75
2023/11/12 03:12:03;;;;;;;0.90;0.50;;;5.10;1.00;;;;;;6235728;23;20354;-75
2023/11/12 03:14:31;;;;;;;0.77;0.52;;;5.10;99.90;;;;;;6237284;23;20402;-75
2023/11/12 03:16:57;;;;;;;1.00;0.60;;;5.00;99.90;;;;;;6210740;23;20593;-75
2023/11/12 03:19:25;;;;;;;1.00;0.70;;;5.10;99.90;;;;;;6236718;23;20023;-75
2023/11/12 03:21:55;;;;;;;0.68;0.50;;;5.00;99.90;;;;;;6209247;23;20077;-74
2023/11/12 03:24:22;;;;;;;1.98;0.68;;;5.10;99.90;;;;;;6234596;23;20362;-74
2023/11/12 03:26:52;;;;;;;1.35;0.90;;;5.10;99.90;;;;;;6185733;23;20035;-74
2023/11/12 03:29:19;;;;;;;1.48;0.57;;;5.10;99.90;;;;;;6185863;23;20020;-75
2023/11/12 03:31:48;;;;;;;0.80;0.50;;;5.10;99.90;;;;;;6209667;23;20032;-75
2023/11/12 03:34:15;;;;;;;1.08;0.70;;;5.20;99.90;;;;;;6237326;23;20016;-75
2023/11/12 03:36:42;;;;;;;1.15;0.57;;;5.20;99.90;;;;;;6235016;23;20032;-74
2023/11/12 03:39:09;;;;;;;0.47;0.43;;;5.30;99.90;;;;;;6234194;23;20023;-74
2023/11/12 03:41:36;;;;;;;1.00;0.40;;;5.30;99.90;;;;;;6237067;23;20466;-75
2023/11/12 03:44:03;;;;;;;1.27;0.75;;;5.40;99.90;;;;;;6237221;23;20020;-74
2023/11/12 03:46:30;;;;;;;1.30;0.73;;;5.40;99.90;;;;;;6185194;23;20094;-75
2023/11/12 03:48:57;;;;;;;1.33;0.77;;;5.40;99.90;;;;;;6185511;23;20340;-74
2023/11/12 03:51:24;;;;;;;1.15;0.88;;;5.40;99.90;;;;;;6235134;23;20024;-75
2023/11/12 03:53:51;;;;;;;1.15;0.80;;;5.50;99.90;;;;;;6235092;23;20024;-75
2023/11/12 03:56:18;;;;;;;2.38;1.20;;;5.50;99.90;;;;;;6236301;23;20443;-74
2023/11/12 03:58:45;;;;;;;1.90;1.30;;;5.50;99.90;;;;;;6236919;23;20383;-74
2023/11/12 04:01:12;;;;;;;2.85;1.48;;;5.50;1.00;;;;;;6236405;23;20107;-75
2023/11/12 04:03:39;;;;;;;2.63;1.90;;;5.60;1.00;;;;;;6237033;23;20023;-74
2023/11/12 04:06:06;;;;;;;1.75;1.20;;;5.60;1.00;;;;;;6207969;23;20474;-75
2023/11/12 04:08:33;;;;;;;2.28;1.42;;;5.60;1.00;;;;;;6234986;23;20058;-75
2023/11/12 04:11:00;;;;;;;3.65;1.77;;;5.60;1.00;;;;;;6236669;23;20415;-75
2023/11/12 04:13:26;;;;;;;2.20;1.38;;;5.70;17.00;;;;;;6236785;23;20688;-75
2023/11/12 04:15:53;;;;;;;1.70;1.13;;;5.70;40.80;;;;;;6184802;23;20024;-74
2023/11/12 04:18:20;;;;;;;1.67;1.33;;;5.70;75.90;;;;;;6237428;23;20020;-75
2023/11/12 04:20:47;;;;;;;1.08;0.80;;;5.80;77.70;;;;;;6234976;23;20032;-74
2023/11/12 04:23:14;;;;;;;1.60;1.08;;;5.80;96.80;;;;;;6234914;23;20534;-75
2023/11/12 04:25:42;;;;;;;0.77;0.60;;;5.90;99.10;;;;;;6236400;23;20039;-74
2023/11/12 04:28:08;;;;;;;1.23;0.93;;;5.90;94.80;;;;;;6237197;23;20023;-75
2023/11/12 04:30:35;;;;;;;1.02;0.80;;;5.90;98.70;;;;;;6235155;23;20020;-75
2023/11/12 04:33:02;;;;;;;1.10;0.88;;;6.00;99.90;;;;;;6235009;23;20023;-75
2023/11/12 04:35:29;;;;;;;1.55;0.90;;;6.00;83.70;;;;;;6235302;23;20111;-75
2023/11/12 04:37:56;;;;;;;1.23;0.90;;;6.00;55.70;;;;;;6235440;23;20116;-74
2023/11/12 04:40:22;;;;;;;1.05;0.57;;;6.10;84.60;;;;;;6209112;23;20074;-75
2023/11/12 04:42:50;;;;;;;0.88;0.77;;;6.10;99.90;;;;;;6237082;23;20098;-74
2023/11/12 04:45:19;;;;;;;1.10;0.73;;;6.10;99.90;;;;;;6211375;23;20358;-75
2023/11/12 04:47:46;;;;;;;1.40;0.90;;;6.20;99.90;;;;;;6238798;23;20016;-74
2023/11/12 04:50:14;;;;;;;0.60;0.60;;;6.20;99.90;;;;;;6209913;23;20398;-74
2023/11/12 04:52:41;;;;;;;0.52;0.50;;;6.20;99.90;;;;;;6187195;23;20054;-74
2023/11/12 04:55:08;;;;;;;0.77;0.60;;;6.20;99.90;;;;;;6211485;23;20024;-74
2023/11/12 04:57:35;;;;;;;0.45;0.38;;;6.30;99.90;;;;;;6237034;23;20021;-74
2023/11/12 05:00:03;;;;;;;0.40;0.40;;;6.30;94.00;;;;;;6238163;23;20020;-75
2023/11/12 05:02:30;;;;;;;0.50;0.38;;;6.30;93.40;;;;;;6212473;23;20342;-74
2023/11/12 05:04:58;;;;;;;0.98;0.52;;;6.40;92.00;;;;;;6234958;23;20030;-74
2023/11/12 05:07:24;;;;;;;0.47;0.38;;;6.40;24.00;;;;;;6239114;23;20024;-73
2023/11/12 05:09:51;;;;;;;0.55;0.50;;;6.40;62.70;;;;;;6238055;23;20020;-73
2023/11/12 05:12:20;;;;;;;0.70;0.40;;;6.40;72.40;;;;;;6238466;23;20477;-73
2023/11/12 05:14:47;;;;;;;0.63;0.50;;;6.40;60.40;;;;;;6238067;23;20031;-74
2023/11/12 05:17:14;;;;;;;0.65;0.50;;;6.50;52.70;;;;;;6237024;23;20078;-75
2023/11/12 05:19:41;;;;;;;0.50;0.50;;;6.50;76.60;;;;;;6185280;23;20080;-74
2023/11/12 05:22:07;;;;;;;0.40;0.30;;;6.50;80.70;;;;;;6211920;23;20532;-74
2023/11/12 05:24:38;;;;;;;0.55;0.50;;;6.50;19.50;;;;;;6237386;23;20024;-74
2023/11/12 05:27:05;;;;;;;0.43;0.40;;;6.50;17.20;;;;;;6239021;23;20056;-73
2023/11/12 05:29:33;;;;;;;0.50;0.40;;;6.50;1.00;;;;;;6236744;23;20024;-74
2023/11/12 05:32:00;;;;;;;0.32;0.32;;;6.60;28.80;;;;;;6212260;23;20042;-74
2023/11/12 05:34:27;;;;;;;0.47;0.40;;;6.50;44.00;;;;;;6236371;23;20016;-73
2023/11/12 05:36:53;;;;;;;0.30;0.30;;;6.50;34.40;;;;;;6186919;23;20024;-74
2023/11/12 05:39:21;;;;;;;0.43;0.43;;;6.60;29.90;;;;;;6211700;23;20028;-73
2023/11/12 05:41:48;;;;;;;0.40;0.40;;;6.60;58.70;;;;;;6236791;23;20024;-74
2023/11/12 05:44:14;;;;;;;0.50;0.50;;;6.60;28.60;;;;;;6236456;23;20039;-74
2023/11/12 05:46:41;;;;;;;1.00;0.55;;;6.60;1.00;;;;;;6211483;23;20513;-74
2023/11/12 05:49:08;;;;;;;0.85;0.52;;;6.60;1.00;;;;;;6235187;23;20115;-74
2023/11/12 05:51:35;;;;;;;0.32;0.32;;;6.60;1.00;;;;;;6234202;23;20131;-74
2023/11/12 05:54:02;;;;;;;0.50;0.40;;;6.60;25.30;;;;;;6235695;23;20353;-74
2023/11/12 05:56:29;;;;;;;0.50;0.50;;;6.60;24.00;;;;;;6234741;23;20085;-74
2023/11/12 05:58:58;;;;;;;0.50;0.45;;;6.60;56.20;;;;;;6208613;23;20028;-74
2023/11/12 06:01:25;;;;;;;0.55;0.43;;;6.60;26.90;;;;;;6235404;23;20090;-74
2023/11/12 06:03:52;;;;;;;0.57;0.43;;;6.60;37.00;;;;;;6233494;23;20046;-74
2023/11/12 06:06:19;;;;;;;0.40;0.40;;;6.60;19.70;;;;;;6205543;23;20072;-75
2023/11/12 06:08:46;;;;;;;0.70;0.60;;;6.60;11.30;;;;;;6235515;23;20051;-74
2023/11/12 06:11:13;;;;;;;0.60;0.47;;;6.60;6.00;;;;;;6209138;23;20113;-74
2023/11/12 06:13:40;;;;;;;0.30;0.30;;;6.60;19.80;;;;;;6206548;23;20020;-74
2023/11/12 06:16:07;;;;;;;0.50;0.35;;;6.60;15.60;;;;;;6181539;23;20074;-74
2023/11/12 06:18:34;;;;;;;0.43;0.40;;;6.70;4.30;;;;;;6206422;23;20024;-74
2023/11/12 06:21:01;;;;;;;0.60;0.50;;;6.60;3.20;;;;;;6204859;23;20038;-74
2023/11/12 06:23:29;;;;;;;0.38;0.32;;;6.70;11.30;;;;;;6231210;23;20038;-76
2023/11/12 06:25:56;;;;;;;0.40;0.30;;;6.70;15.00;;;;;;6206124;23;20073;-75
2023/11/12 06:28:23;;;;;;;0.70;0.50;;;6.70;1.00;;;;;;6233332;23;20031;-74
2023/11/12 06:30:51;;;;;;;0.50;0.40;;;6.70;1.00;;;;;;6205292;23;20055;-74
2023/11/12 06:33:18;;;;;;;0.93;0.70;;;6.70;1.00;;;;;;6236956;23;20032;-74
2023/11/12 06:35:45;;;;;;;0.50;0.50;;;6.70;1.00;;;;;;6234156;23;20040;-74
2023/11/12 06:38:12;;;;;;;0.30;0.30;;;6.70;1.00;;;;;;6210750;23;20024;-74
2023/11/12 06:40:38;;;;;;;0.40;0.40;;;6.70;1.00;;;;;;6209864;23;20024;-74
2023/11/12 06:43:05;;;;;;;0.85;0.50;;;6.80;1.00;;;;;;6232999;23;20031;-74
2023/11/12 06:45:32;;;;;;;0.98;0.50;;;6.80;1.00;;;;;;6232447;23;20101;-74
2023/11/12 06:47:59;;;;;;;0.77;0.50;;;6.80;1.00;;;;;;6233403;23;20024;-74
2023/11/12 06:50:26;;;;;;;1.20;0.68;;;6.70;1.00;;;;;;6204007;23;20462;-74
2023/11/12 06:52:53;;;;;;;0.60;0.50;;;6.80;1.00;;;;;;6207142;23;20016;-73
2023/11/12 06:55:20;;;;;;;0.40;0.40;;;6.70;1.00;;;;;;6205351;23;20024;-74
2023/11/12 06:57:47;;;;;;;0.82;0.50;;;6.70;1.00;;;;;;6235778;23;20066;-74
2023/11/12 07:00:16;;;;;;;0.35;0.30;;;6.80;1.00;;;;;;6235538;23;20056;-74
2023/11/12 07:02:43;;;;;;;0.25;0.22;;;6.80;1.00;;;;;;6233205;23;20357;-74
2023/11/12 07:05:10;;;;;;;0.30;0.30;;;6.80;3.80;;;;;;6230724;23;20024;-74
2023/11/12 07:07:38;;;;;;;0.57;0.43;;;6.80;14.10;;;;;;6234563;23;20016;-74
2023/11/12 07:10:05;;;;;;;0.30;0.30;;;6.80;16.90;;;;;;6209365;23;20105;-74
2023/11/12 07:12:32;;;;;;;0.40;0.40;;;6.90;7.30;;;;;;6210021;23;20016;-74
2023/11/12 07:14:59;;;;;;;0.60;0.40;;;6.90;9.20;;;;;;6236406;23;20085;-74
2023/11/12 07:17:26;;;;;;;0.35;0.35;;;6.90;1.00;;;;;;6210549;23;20020;-74
2023/11/12 07:19:55;;;;;;;0.70;0.50;;;6.90;1.00;;;;;;6233482;23;20031;-74
2023/11/12 07:22:22;;;;;;;0.30;0.30;;;6.90;1.00;;;;;;6235226;23;20855;-74
2023/11/12 07:24:48;;;;;;;0.30;0.30;;;6.90;1.00;;;;;;6229938;23;20451;-74
2023/11/12 07:27:15;;;;;;;0.45;0.30;;;6.90;1.00;;;;;;6232488;23;20103;-74
2023/11/12 07:29:42;;;;;;;0.65;0.20;;;6.90;1.00;;;;;;6230698;23;20016;-75
2023/11/12 07:32:09;;;;;;;0.28;0.20;;;6.90;1.00;;;;;;6234149;23;20093;-74
2023/11/12 07:34:36;;;;;;;0.20;0.20;;;6.90;1.00;;;;;;6233398;23;20020;-75
2023/11/12 07:37:04;;;;;;;0.22;0.20;;;6.90;1.00;;;;;;6236083;23;20024;-74
2023/11/12 07:39:30;;;;;;;0.28;0.28;;;6.90;1.00;;;;;;6209034;23;20020;-74
2023/11/12 07:41:57;;;;;;;0.30;0.30;;;6.90;1.00;;;;;;6209810;23;20432;-75
2023/11/12 07:44:24;;;;;;;0.50;0.30;;;6.90;1.00;;;;;;6233409;23;20523;-75
2023/11/12 07:46:51;;;;;;;0.40;0.30;;;7.00;1.00;;;;;;6209699;23;20410;-73
2023/11/12 07:49:18;;;;;;;0.32;0.30;;;7.00;1.00;;;;;;6233566;23;20103;-74
2023/11/12 07:51:48;;;;;;;0.40;0.25;;;7.00;1.00;;;;;;6182529;23;20039;-75
2023/11/12 07:54:15;;;;;;;0.32;0.32;;;7.00;1.00;;;;;;6234029;23;20071;-74
2023/11/12 07:56:41;;;;;;;0.40;0.40;;;7.10;1.00;;;;;;6207129;23;20024;-74
2023/11/12 07:59:08;;;;;;;0.40;0.28;;;7.10;1.00;;;;;;6232625;23;20313;-75
2023/11/12 08:01:35;;;;;;;0.25;0.25;;;7.20;1.00;;;;;;6207212;23;20441;-74
2023/11/12 08:04:02;;;;;;;0.40;0.40;;;7.20;1.00;;;;;;6231602;23;20324;-75
2023/11/12 08:06:29;;;;;;;0.43;0.30;;;7.20;1.00;;;;;;6229775;23;20028;-74
2023/11/12 08:08:58;;;;;;;0.40;0.28;;;7.30;1.00;;;;;;6233282;23;20046;-75
2023/11/12 08:11:25;;;;;;;0.30;0.30;;;7.30;1.00;;;;;;6208181;23;20099;-75
2023/11/12 08:13:55;;;;;;;0.40;0.40;;;7.40;1.00;;;;;;6232699;23;20217;-74
2023/11/12 08:16:21;;;;;;;0.47;0.30;;;7.50;1.00;;;;;;6227876;23;20489;-74
2023/11/12 08:18:48;;;;;;;0.30;0.30;;;7.50;1.00;;;;;;6208866;23;20028;-75
2023/11/12 08:21:15;;;;;;;0.30;0.30;;;7.60;99.90;;;;;;6233783;23;20368;-74
2023/11/12 08:23:42;;;;;;;0.43;0.40;;;7.60;99.90;;;;;;6237340;23;20039;-74
2023/11/12 08:26:09;;;;;;;0.25;0.25;;;7.70;99.90;;;;;;6237343;23;20035;-74
2023/11/12 08:28:35;;;;;;;0.43;0.22;;;7.70;99.90;;;;;;6211006;23;20027;-74
2023/11/12 08:31:02;;;;;;;0.20;0.20;;;7.80;1.00;;;;;;6209054;23;20051;-75
2023/11/12 08:33:29;;;;;;;0.50;0.40;;;7.90;1.00;;;;;;6208623;23;20028;-74
2023/11/12 08:35:56;;;;;;;0.43;0.40;;;8.00;1.00;;;;;;6232440;23;20112;-74
2023/11/12 08:38:23;;;;;;;0.28;0.28;;;8.00;99.90;;;;;;6234817;23;20111;-74
2023/11/12 08:40:50;;;;;;;0.20;0.20;;;8.10;99.90;;;;;;6210245;23;20027;-74
2023/11/12 08:43:17;;;;;;;0.32;0.30;;;8.10;99.90;;;;;;6237633;23;20168;-74
2023/11/12 08:45:44;;;;;;;0.35;0.35;;;8.20;99.90;;;;;;6210752;23;20374;-74
2023/11/12 08:48:11;;;;;;;0.57;0.35;;;8.20;99.90;;;;;;6209268;23;20035;-74
2023/11/12 08:50:37;;;;;;;0.63;0.45;;;8.30;99.90;;;;;;6232559;23;20090;-72
2023/11/12 08:53:04;;;;;;;0.60;0.50;;;8.30;99.90;;;;;;6182904;23;20024;-73
2023/11/12 08:55:31;;;;;;;0.85;0.55;;;8.30;25.20;;;;;;6231302;23;20402;-73
2023/11/12 08:57:58;;;;;;;0.43;0.40;;;8.40;20.90;;;;;;6236581;23;20024;-73
2023/11/12 09:00:25;;;;;;;0.43;0.35;;;8.40;1.00;;;;;;6232298;23;20491;-73
2023/11/12 09:02:52;;;;;;;0.70;0.40;;;8.50;1.00;;;;;;6231316;23;20178;-73
2023/11/12 09:05:19;;;;;;;0.32;0.32;;;8.50;1.00;;;;;;6207218;23;20024;-73
2023/11/12 09:07:46;;;;;;;0.35;0.35;;;8.60;1.00;;;;;;6237824;23;20082;-75
2023/11/12 09:10:13;;;;;;;0.40;0.30;;;8.60;1.00;;;;;;6236921;23;20024;-73
2023/11/12 09:12:40;;;;;;;0.40;0.40;;;8.60;99.90;;;;;;6237932;23;20024;-73
2023/11/12 09:15:09;;;;;;;0.40;0.20;;;8.60;99.90;;;;;;6235595;23;20043;-73
2023/11/12 09:17:36;;;;;;;0.30;0.30;;;8.70;99.90;;;;;;6237700;23;20085;-73
2023/11/12 09:20:04;;;;;;;0.17;0.17;;;8.70;99.90;;;;;;6235349;23;20027;-73
2023/11/12 09:22:31;;;;;;;0.35;0.35;;;8.70;96.90;;;;;;6235523;23;20059;-73
2023/11/12 09:24:58;;;;;;;0.47;0.32;;;8.70;99.90;;;;;;6234483;23;20450;-73
2023/11/12 09:27:37;;;;;;;0.28;0.28;;;8.70;51.40;;;;;;6236289;23;20287;-73
2023/11/12 09:30:04;;;;;;;0.30;0.30;;;8.70;91.00;;;;;;6234604;23;20362;-74
2023/11/12 09:32:31;;;;;;;0.32;0.32;;;8.80;79.80;;;;;;6237716;23;20022;-73
2023/11/12 09:34:58;;;;;;;0.30;0.20;;;8.80;59.00;;;;;;6233291;23;20032;-74
2023/11/12 09:37:25;;;;;;;0.25;0.25;;;8.90;68.10;;;;;;6186082;23;20022;-74
2023/11/12 09:39:54;;;;;;;0.30;0.30;;;8.90;13.70;;;;;;6209729;23;20435;-73
2023/11/12 09:42:22;;;;;;;0.50;0.38;;;9.00;1.00;;;;;;6210449;23;20051;-74
2023/11/12 09:44:49;;;;;;;0.30;0.30;;;9.00;99.90;;;;;;6208948;23;20393;-80
2023/11/12 09:47:31;;;;;;;0.22;0.22;;;9.00;99.90;;;;;;6209594;23;20028;-72
2023/11/12 09:49:58;;;;;;;0.55;0.32;;;9.00;99.90;;;;;;6206922;23;20016;-72
2023/11/12 09:52:25;;;;;;;0.63;0.35;;;9.00;99.90;;;;;;6185630;23;20032;-72
2023/11/12 09:54:52;;;;;;;0.65;0.50;;;9.00;99.90;;;;;;6209366;23;20043;-72
2023/11/12 09:57:18;;;;;;;0.88;0.47;;;9.10;95.10;;;;;;6234873;23;20030;-72
2023/11/12 09:59:45;;;;;;;0.68;0.38;;;9.10;1.00;;;;;;6232718;23;20529;-72
2023/11/12 10:02:12;;;;;;;0.30;0.25;;;9.10;1.00;;;;;;6208758;23;20347;-73
2023/11/12 10:04:43;;;;;;;0.30;0.30;;;9.10;1.00;;;;;;6183536;23;20039;-72
2023/11/12 10:07:11;;;;;;;0.40;0.40;;;9.10;1.00;;;;;;6236142;23;20039;-72
2023/11/12 10:09:38;;;;;;;0.20;0.20;;;9.20;99.90;;;;;;6235946;23;20020;-72
2023/11/12 10:12:08;;;;;;;0.55;0.47;;;9.30;99.90;;;;;;6208536;23;20024;-72
2023/11/12 10:14:35;;;;;;;0.55;0.40;;;9.40;99.90;;;;;;6234690;23;20025;-72
2023/11/12 10:17:06;;;;;;;0.32;0.32;;;9.40;1.00;;;;;;6234461;23;20028;-72
2023/11/12 10:19:35;;;;;;;0.20;0.20;;;9.50;52.30;;;;;;6233302;23;20265;-72
2023/11/12 10:22:03;;;;;;;0.30;0.30;;;9.60;1.00;;;;;;6233771;23;20489;-72
2023/11/12 10:24:31;;;;;;;0.68;0.40;;;9.60;1.00;;;;;;6205133;23;20047;-72
2023/11/12 10:27:02;;;;;;;0.20;0.20;;;9.60;1.00;;;;;;6202602;23;20028;-72
2023/11/12 10:29:29;;;;;;;0.65;0.40;;;9.60;11.40;;;;;;6202748;23;20042;-72
2023/11/12 10:31:57;;;;;;;0.30;0.30;;;9.70;1.00;;;;;;6227594;23;20513;-72
2023/11/12 10:34:26;;;;;;;0.68;0.40;;;9.70;99.90;;;;;;6202610;23;20074;-71
2023/11/12 10:37:13;;;;;;;0.85;0.68;;;9.70;1.00;;;;;;6228798;23;20024;-73
2023/11/12 10:39:41;;;;;;;0.68;0.40;;;9.70;1.00;;;;;;6227432;23;20103;-73
2023/11/12 10:42:24;;;;;;;0.70;0.47;;;9.80;99.90;;;;;;6227655;23;20106;-72
2023/11/12 10:44:55;;;;;;;0.50;0.50;;;9.90;1.00;;;;;;6202871;23;20039;-72
2023/11/12 10:47:25;;;;;;;0.57;0.52;;;9.90;99.90;;;;;;6203434;23;20055;-72
2023/11/12 10:49:53;;;;;;;0.93;0.57;;;9.90;99.90;;;;;;6175119;23;20020;-72
2023/11/12 10:52:19;;;;;;;1.05;0.68;;;9.90;95.30;;;;;;6229554;23;20086;-72
2023/11/12 10:54:47;;;;;;;0.95;0.57;;;9.90;99.90;;;;;;6229495;23;20115;-72
2023/11/12 10:57:13;;;;;;;1.27;0.60;;;9.90;99.90;;;;;;6203893;23;20032;-72
2023/11/12 10:59:42;;;;;;;0.32;0.32;;;9.90;99.90;;;;;;6228169;23;20098;-72
2023/11/12 11:02:13;;;;;;;1.38;0.80;;;10.00;99.90;;;;;;6227803;23;20021;-72
2023/11/12 11:04:40;;;;;;;0.80;0.70;;;10.10;99.90;;;;;;6201192;23;20102;-72
2023/11/12 11:07:07;;;;;;;0.63;0.50;;;10.30;99.90;;;;;;6225055;23;20438;-72
2023/11/12 11:09:34;;;;;;;0.85;0.45;;;10.50;1.00;;;;;;6227745;23;20082;-72
2023/11/12 11:12:01;;;;;;;0.55;0.45;;;10.60;99.90;;;;;;6226706;23;20232;-72
2023/11/12 11:14:27;;;;;;;0.73;0.68;;;10.80;99.90;;;;;;6202952;23;20085;-72
2023/11/12 11:16:55;;;;;;;0.45;0.45;;;11.00;1.00;;;;;;6229714;23;20031;-73
2023/11/12 11:19:44;;;;;;;0.38;0.35;;;11.10;99.90;;;;;;6228071;23;20031;-71
2023/11/12 11:22:24;;;;;;;0.80;0.50;;;11.20;99.90;;;;;;6229411;23;20119;-72
2023/11/12 11:24:52;;;;;;;0.57;0.43;;;11.30;38.40;;;;;;6201870;23;20046;-71
2023/11/12 11:27:21;;;;;;;1.10;0.60;;;11.30;1.00;;;;;;6227122;23;20535;-72
2023/11/12 11:30:06;;;;;;;0.93;0.50;;;11.40;1.00;;;;;;6228274;23;20195;-72
2023/11/12 11:32:33;;;;;;;1.30;0.80;;;11.50;99.90;;;;;;6227689;23;20350;-72
2023/11/12 11:34:59;;;;;;;1.63;0.90;;;11.60;1.00;;;;;;6225806;23;20028;-72
2023/11/12 11:38:04;;;;;;;1.35;1.00;;;11.70;99.90;;;;;;6228826;23;20027;-72
2023/11/12 11:40:31;;;;;;;1.23;0.70;;;11.80;99.90;;;;;;6228834;23;20331;-73
2023/11/12 11:43:23;;;;;;;1.27;0.70;;;11.90;99.90;;;;;;6226326;23;20024;-72
2023/11/12 11:46:09;;;;;;;0.63;0.40;;;12.00;99.90;;;;;;6229696;23;20024;-72
2023/11/12 11:49:03;;;;;;;0.98;0.60;;;12.00;99.90;;;;;;6201678;23;20415;-73
2023/11/12 11:51:37;;;;;;;0.75;0.60;;;12.00;99.90;;;;;;6208516;23;20028;-72
2023/11/12 11:54:05;;;;;;;1.10;0.60;;;12.00;99.90;;;;;;6229402;23;20095;-72
2023/11/12 11:56:31;;;;;;;0.90;0.60;;;11.90;99.90;;;;;;6231548;23;20024;-72
2023/11/12 11:58:59;;;;;;;0.43;0.43;;;11.80;99.90;;;;;;6229805;23;20076;-72
2023/11/12 12:01:26;;;;;;;0.60;0.50;;;11.80;99.90;;;;;;6230733;23;20039;-72
2023/11/12 12:04:05;;;;;;;0.75;0.50;;;11.80;99.90;;;;;;6229280;23;20040;-72
2023/11/12 12:06:33;;;;;;;1.77;0.70;;;11.80;99.90;;;;;;6200705;23;20024;-72
2023/11/12 12:09:00;;;;;;;0.63;0.45;;;11.80;99.90;;;;;;6229065;23;20362;-72
2023/11/12 12:11:27;;;;;;;0.40;0.40;;;11.80;99.90;;;;;;6231836;23;20804;-71
2023/11/12 12:14:01;;;;;;;0.43;0.35;;;11.80;99.90;;;;;;6228837;23;20074;-72
2023/11/12 12:16:28;;;;;;;0.85;0.40;;;11.70;99.90;;;;;;6232052;23;20026;-72
2023/11/12 12:18:56;;;;;;;0.45;0.40;;;11.70;99.90;;;;;;6230485;23;20478;-72
2023/11/12 12:21:23;;;;;;;0.80;0.60;;;11.60;99.90;;;;;;6229780;23;20082;-72
2023/11/12 12:23:50;;;;;;;0.70;0.40;;;11.50;99.90;;;;;;6228263;23;20036;-72
2023/11/12 12:26:17;;;;;;;0.45;0.38;;;11.50;99.90;;;;;;6231850;23;20051;-72
2023/11/12 12:28:44;;;;;;;0.85;0.47;;;11.50;99.90;;;;;;6229720;23;20647;-72
2023/11/12 12:31:12;;;;;;;0.47;0.32;;;11.60;99.90;;;;;;6230159;23;20074;-72
2023/11/12 12:33:39;;;;;;;0.40;0.30;;;11.70;99.90;;;;;;6232028;23;20024;-72
2023/11/12 12:36:16;;;;;;;0.25;0.25;;;11.80;99.90;;;;;;6201774;23;20471;-72
2023/11/12 12:38:59;;;;;;;0.68;0.40;;;11.80;99.90;;;;;;6229829;23;20020;-72
2023/11/12 12:41:27;;;;;;;0.85;0.70;;;11.80;99.90;;;;;;6229068;23;20032;-72
2023/11/12 12:43:56;;;;;;;0.60;0.50;;;11.70;99.90;;;;;;6228396;23;20035;-72
2023/11/12 12:46:24;;;;;;;1.17;0.43;;;11.70;99.90;;;;;;6204321;23;20024;-72
2023/11/12 12:48:58;;;;;;;0.52;0.45;;;11.70;99.90;;;;;;6229151;23;20075;-72
2023/11/12 12:51:25;;;;;;;0.90;0.50;;;11.70;99.90;;;;;;6203504;23;20023;-72
2023/11/12 12:53:52;;;;;;;0.30;0.30;;;11.70;99.90;;;;;;6230723;23;20024;-72
2023/11/12 12:56:21;;;;;;;0.68;0.50;;;11.70;99.90;;;;;;6231274;23;20020;-73
2023/11/12 12:58:48;;;;;;;0.80;0.47;;;11.70;99.90;;;;;;6229023;23;20028;-72
2023/11/12 13:01:15;;;;;;;0.55;0.40;;;11.80;99.90;;;;;;6228507;23;20089;-72
2023/11/12 13:03:45;;;;;;;0.32;0.30;;;11.80;99.90;;;;;;6230487;23;20024;-72
2023/11/12 13:06:14;;;;;;;0.20;0.20;;;11.80;99.90;;;;;;6199717;23;20024;-72